Terminal Aerodrome Forecast
Issued by NWS Wilmington, NC

Home | Current Version | Previous Version | Text Only | Print | Product List | Glossary On
Versions: 1 2 3 4 5 6 7 8 9 10 11 12 13 14 15 16 17
000
FTUS42 KILM 291143 CCA
TAFFLO
TAF COR
KFLO 291143Z 2912/3012 03006KT P6SM BKN010
      TEMPO 2912/2913 BKN008
     FM291400 04007KT P6SM SCT010 SCT025
     FM291800 05009KT P6SM VCSH SCT035 SCT060 BKN100
      TEMPO 2918/2922 -SHRA BKN050
     FM300000 06003KT P6SM SCT060 SCT120
     FM300800 02003KT 6SM BR BKN008=

USA.gov is the U.S. government's official web portal to all federal, state and local government web resources and services.